Time;durP1;ratioP1;P1;durP2;ratioP2;P2;SDS_P1;SDS_P2;PMS_P1;PMS_P2;Temp;Humidity;BMP_temperature;BMP_pressure;BME280_temperature;BME280_humidity;BME280_pressure;Samples;Min_cycle;Max_cycle;Signal;HPM_P1;HPM_P2
2022/08/21 00:01:04;;;;;;;11.32;6.03;;;;;;;;;;5109329;28;20104;-71
2022/08/21 00:03:30;;;;;;;9.20;5.68;;;;;;;;;;5107375;28;20071;-71
2022/08/21 00:05:56;;;;;;;8.27;5.00;;;;;;;;;;5107799;28;20077;-71
2022/08/21 00:08:22;;;;;;;8.13;5.18;;;;;;;;;;5107497;28;20047;-71
2022/08/21 00:10:49;;;;;;;10.30;5.60;;;;;;;;;;5112266;27;20064;-71
2022/08/21 00:13:16;;;;;;;10.95;5.55;;;;;;;;;;5113672;28;20416;-71
2022/08/21 00:15:42;;;;;;;9.23;6.18;;;;;;;;;;5094647;28;20038;-70
2022/08/21 00:18:10;;;;;;;8.32;5.38;;;;;;;;;;5113092;27;20088;-70
2022/08/21 00:20:37;;;;;;;12.55;6.47;;;;;;;;;;5108942;27;20423;-70
2022/08/21 00:23:03;;;;;;;8.55;5.75;;;;;;;;;;5105144;27;20043;-71
2022/08/21 00:25:29;;;;;;;12.07;5.78;;;;;;;;;;5110852;27;20088;-71
2022/08/21 00:27:55;;;;;;;10.00;6.78;;;;;;;;;;5113041;27;20043;-71
2022/08/21 00:30:22;;;;;;;6.47;4.95;;;;;;;;;;5109355;27;20455;-71
2022/08/21 00:32:49;;;;;;;9.55;5.88;;;;;;;;;;5123272;27;20066;-71
2022/08/21 00:35:17;;;;;;;7.90;6.03;;;;;;;;;;5112563;27;20401;-70
2022/08/21 00:37:43;;;;;;;12.75;5.95;;;;;;;;;;5117219;27;20037;-71
2022/08/21 00:40:11;;;;;;;10.65;6.00;;;;;;;;;;5112184;27;20040;-70
2022/08/21 00:42:38;;;;;;;9.60;5.97;;;;;;;;;;5113119;27;20096;-70
2022/08/21 00:45:05;;;;;;;12.63;7.28;;;;;;;;;;5112057;27;20117;-71
2022/08/21 00:47:31;;;;;;;7.95;6.57;;;;;;;;;;5117681;27;20086;-71
2022/08/21 00:49:57;;;;;;;8.75;5.93;;;;;;;;;;5113181;28;20042;-71
2022/08/21 00:52:27;;;;;;;8.00;5.75;;;;;;;;;;5109313;27;20027;-70
2022/08/21 00:54:54;;;;;;;12.40;6.45;;;;;;;;;;5103463;27;20048;-70
2022/08/21 00:57:22;;;;;;;10.25;6.03;;;;;;;;;;5120318;27;20039;-70
2022/08/21 00:59:50;;;;;;;10.43;6.20;;;;;;;;;;5122328;27;20035;-71
2022/08/21 01:02:16;;;;;;;11.15;5.95;;;;;;;;;;5121965;27;20051;-71
2022/08/21 01:04:43;;;;;;;8.30;5.85;;;;;;;;;;5114735;27;20039;-71
2022/08/21 01:07:09;;;;;;;9.55;7.03;;;;;;;;;;5105800;27;20039;-71
2022/08/21 01:09:36;;;;;;;6.68;5.22;;;;;;;;;;5094004;27;20118;-70
2022/08/21 01:12:03;;;;;;;9.63;6.43;;;;;;;;;;5107424;27;20507;-70
2022/08/21 01:14:29;;;;;;;8.18;5.78;;;;;;;;;;5120195;27;20035;-71
2022/08/21 01:16:56;;;;;;;11.75;6.60;;;;;;;;;;5111779;27;20062;-70
2022/08/21 01:19:22;;;;;;;9.00;5.35;;;;;;;;;;5112910;27;20044;-71
2022/08/21 01:21:48;;;;;;;8.52;6.50;;;;;;;;;;5106902;27;20035;-70
2022/08/21 01:24:15;;;;;;;9.25;6.03;;;;;;;;;;5111389;27;20093;-71
2022/08/21 01:26:42;;;;;;;11.13;6.50;;;;;;;;;;5112061;27;20698;-71
2022/08/21 01:29:12;;;;;;;9.38;6.45;;;;;;;;;;5113499;27;20405;-71
2022/08/21 01:31:38;;;;;;;9.45;6.50;;;;;;;;;;5111800;27;20038;-71
2022/08/21 01:34:04;;;;;;;10.98;6.75;;;;;;;;;;5111784;28;20535;-70
2022/08/21 01:36:30;;;;;;;9.48;6.50;;;;;;;;;;5111905;27;20294;-70
2022/08/21 01:38:57;;;;;;;7.35;6.03;;;;;;;;;;5110806;27;20115;-70
2022/08/21 01:41:23;;;;;;;7.72;5.88;;;;;;;;;;5108782;27;20035;-70
2022/08/21 01:43:49;;;;;;;8.90;6.38;;;;;;;;;;5111841;28;20043;-71
2022/08/21 01:46:16;;;;;;;10.23;6.30;;;;;;;;;;5111308;27;20484;-70
2022/08/21 01:48:43;;;;;;;9.93;5.63;;;;;;;;;;5113237;27;20083;-71
2022/08/21 01:51:09;;;;;;;11.60;6.88;;;;;;;;;;5103168;27;20043;-70
2022/08/21 01:53:36;;;;;;;8.30;5.82;;;;;;;;;;5113631;27;20387;-70
2022/08/21 01:56:04;;;;;;;9.60;6.05;;;;;;;;;;5116069;27;20039;-71
2022/08/21 01:58:30;;;;;;;13.40;6.97;;;;;;;;;;5108068;28;20080;-70
2022/08/21 02:00:57;;;;;;;7.25;5.32;;;;;;;;;;5111344;28;20050;-70
2022/08/21 02:03:23;;;;;;;9.38;6.35;;;;;;;;;;5111248;28;20442;-70
2022/08/21 02:05:49;;;;;;;7.93;6.68;;;;;;;;;;5111010;27;20100;-71
2022/08/21 02:08:15;;;;;;;10.88;6.40;;;;;;;;;;5116246;27;20049;-70
2022/08/21 02:10:42;;;;;;;9.05;6.35;;;;;;;;;;5107486;27;20484;-70
2022/08/21 02:13:08;;;;;;;11.75;6.13;;;;;;;;;;5110680;28;20489;-70
2022/08/21 02:15:35;;;;;;;15.15;6.70;;;;;;;;;;5109943;27;20176;-70
2022/08/21 02:18:02;;;;;;;9.88;6.68;;;;;;;;;;5110679;27;20163;-69
2022/08/21 02:20:48;;;;;;;13.18;6.88;;;;;;;;;;5107516;27;20040;-70
2022/08/21 02:23:15;;;;;;;7.40;6.05;;;;;;;;;;5110227;28;20442;-70
2022/08/21 02:25:41;;;;;;;11.70;5.65;;;;;;;;;;5110334;27;20039;-70
2022/08/21 02:28:09;;;;;;;9.77;5.97;;;;;;;;;;5108547;28;20036;-70
2022/08/21 02:30:38;;;;;;;10.15;6.03;;;;;;;;;;5104338;28;20039;-70
2022/08/21 02:33:04;;;;;;;10.77;5.75;;;;;;;;;;5101163;27;20563;-70
2022/08/21 02:35:31;;;;;;;10.00;5.70;;;;;;;;;;5110474;28;20504;-70
2022/08/21 02:37:58;;;;;;;8.27;5.88;;;;;;;;;;5109837;27;20036;-70
2022/08/21 02:40:27;;;;;;;11.68;5.90;;;;;;;;;;5109914;27;20047;-71
2022/08/21 02:42:54;;;;;;;8.85;5.75;;;;;;;;;;5110324;28;20039;-70
2022/08/21 02:45:20;;;;;;;12.02;6.35;;;;;;;;;;5108151;27;20031;-70
2022/08/21 02:47:49;;;;;;;10.15;5.85;;;;;;;;;;5108291;28;20078;-69
2022/08/21 02:50:18;;;;;;;12.05;6.07;;;;;;;;;;5104693;28;20532;-70
2022/08/21 02:52:45;;;;;;;11.23;6.18;;;;;;;;;;5110030;27;20065;-71
2022/08/21 02:55:11;;;;;;;10.93;5.90;;;;;;;;;;5110081;28;20054;-70
2022/08/21 02:57:37;;;;;;;9.23;5.60;;;;;;;;;;5110039;28;20040;-70
2022/08/21 03:00:05;;;;;;;9.55;5.50;;;;;;;;;;5110290;27;20050;-70
2022/08/21 03:02:31;;;;;;;12.55;6.32;;;;;;;;;;5108549;28;20043;-70
2022/08/21 03:04:57;;;;;;;11.02;6.63;;;;;;;;;;5110176;28;20312;-70
2022/08/21 03:07:23;;;;;;;10.25;6.25;;;;;;;;;;5109271;28;20124;-70
2022/08/21 03:09:50;;;;;;;9.73;6.30;;;;;;;;;;5109470;27;20078;-71
2022/08/21 03:12:16;;;;;;;10.38;6.50;;;;;;;;;;5109871;28;20035;-71
2022/08/21 03:14:42;;;;;;;8.65;6.22;;;;;;;;;;5110178;28;20043;-71
2022/08/21 03:17:08;;;;;;;9.25;5.45;;;;;;;;;;5099657;28;20477;-70
2022/08/21 03:19:35;;;;;;;11.95;6.15;;;;;;;;;;5108059;27;20079;-70
2022/08/21 03:22:01;;;;;;;10.93;5.90;;;;;;;;;;5104561;28;20549;-70
2022/08/21 03:24:27;;;;;;;12.65;7.25;;;;;;;;;;5088449;28;20123;-70
2022/08/21 03:26:53;;;;;;;10.38;5.97;;;;;;;;;;5109539;28;20123;-70
2022/08/21 03:29:19;;;;;;;10.27;6.55;;;;;;;;;;5109688;28;20040;-71
2022/08/21 03:31:45;;;;;;;11.77;6.03;;;;;;;;;;5104767;28;20575;-70
2022/08/21 03:34:12;;;;;;;8.52;6.43;;;;;;;;;;5107893;28;20036;-70
2022/08/21 03:36:38;;;;;;;9.75;6.03;;;;;;;;;;5109446;28;20038;-70
2022/08/21 03:39:04;;;;;;;13.95;6.70;;;;;;;;;;5090539;28;20124;-70
2022/08/21 03:41:30;;;;;;;8.63;5.55;;;;;;;;;;5109483;28;20040;-70
2022/08/21 03:43:56;;;;;;;17.55;7.20;;;;;;;;;;5110101;28;20051;-70
2022/08/21 03:46:22;;;;;;;12.48;6.30;;;;;;;;;;5104209;27;20043;-70
2022/08/21 03:48:49;;;;;;;10.07;6.43;;;;;;;;;;5092954;28;20060;-70
2022/08/21 03:51:15;;;;;;;8.63;6.05;;;;;;;;;;5093712;28;20028;-70
2022/08/21 03:53:41;;;;;;;9.63;6.07;;;;;;;;;;5082510;28;20036;-70
2022/08/21 03:56:07;;;;;;;7.40;5.50;;;;;;;;;;5093307;28;20118;-69
2022/08/21 03:58:34;;;;;;;7.65;5.38;;;;;;;;;;5093243;28;20350;-70
2022/08/21 04:01:01;;;;;;;8.93;6.10;;;;;;;;;;5093420;28;20040;-70
2022/08/21 04:03:27;;;;;;;11.77;5.68;;;;;;;;;;5084730;28;20040;-70
2022/08/21 04:05:54;;;;;;;11.07;5.55;;;;;;;;;;5087464;28;20040;-71
2022/08/21 04:08:20;;;;;;;8.40;6.13;;;;;;;;;;5092106;28;20066;-71
2022/08/21 04:10:47;;;;;;;10.10;6.13;;;;;;;;;;5091532;28;20032;-70
2022/08/21 04:13:14;;;;;;;11.20;6.18;;;;;;;;;;5093064;28;20508;-70
2022/08/21 04:15:41;;;;;;;10.82;6.15;;;;;;;;;;5092891;28;20124;-70
2022/08/21 04:18:08;;;;;;;11.50;5.82;;;;;;;;;;5092748;28;20420;-70
2022/08/21 04:20:34;;;;;;;10.32;6.15;;;;;;;;;;5090274;28;20028;-70
2022/08/21 04:23:01;;;;;;;8.15;6.03;;;;;;;;;;5091933;28;20090;-70
2022/08/21 04:25:27;;;;;;;9.52;6.40;;;;;;;;;;5081790;28;20044;-70
2022/08/21 04:27:53;;;;;;;11.35;6.00;;;;;;;;;;5086638;28;20123;-70
2022/08/21 04:30:20;;;;;;;8.98;5.90;;;;;;;;;;5081074;28;20656;-70
2022/08/21 04:32:47;;;;;;;10.25;7.47;;;;;;;;;;5090039;28;20043;-70
2022/08/21 04:35:14;;;;;;;13.02;8.13;;;;;;;;;;5091998;28;20039;-70
2022/08/21 04:37:40;;;;;;;15.18;6.30;;;;;;;;;;5088792;28;20028;-70
2022/08/21 04:40:07;;;;;;;11.98;6.07;;;;;;;;;;5086284;28;20074;-70
2022/08/21 04:42:33;;;;;;;12.68;6.70;;;;;;;;;;5090753;28;20075;-70
2022/08/21 04:45:00;;;;;;;12.27;6.90;;;;;;;;;;5092902;28;20039;-70
2022/08/21 04:47:26;;;;;;;8.52;5.68;;;;;;;;;;5110342;27;20181;-69
2022/08/21 04:49:52;;;;;;;15.82;7.00;;;;;;;;;;5093749;27;20059;-70
2022/08/21 04:52:22;;;;;;;9.85;5.93;;;;;;;;;;5104545;27;20155;-70
2022/08/21 04:54:49;;;;;;;11.48;6.53;;;;;;;;;;5111945;27;20042;-70
2022/08/21 04:57:16;;;;;;;11.75;6.47;;;;;;;;;;5112901;27;20063;-70
2022/08/21 04:59:45;;;;;;;10.57;5.95;;;;;;;;;;5112538;27;20473;-70
2022/08/21 05:02:12;;;;;;;10.07;6.25;;;;;;;;;;5112221;27;20415;-71
2022/08/21 05:04:44;;;;;;;7.65;6.38;;;;;;;;;;5112143;27;20051;-70
2022/08/21 05:07:12;;;;;;;9.15;6.22;;;;;;;;;;5107573;27;20044;-70
2022/08/21 05:09:39;;;;;;;11.95;6.97;;;;;;;;;;5112780;27;20039;-70
2022/08/21 05:12:05;;;;;;;8.73;5.75;;;;;;;;;;5124483;27;20040;-70
2022/08/21 05:14:31;;;;;;;9.60;5.70;;;;;;;;;;5108293;27;20046;-70
2022/08/21 05:16:58;;;;;;;12.23;6.93;;;;;;;;;;5112280;27;20035;-70
2022/08/21 05:19:25;;;;;;;9.70;5.60;;;;;;;;;;5109996;27;20042;-71
2022/08/21 05:21:52;;;;;;;22.10;7.10;;;;;;;;;;5111680;27;20054;-71
2022/08/21 05:24:18;;;;;;;11.52;6.20;;;;;;;;;;5111343;27;20401;-69
2022/08/21 05:26:45;;;;;;;8.18;6.28;;;;;;;;;;5125325;27;20043;-70
2022/08/21 05:29:12;;;;;;;8.60;5.25;;;;;;;;;;5109438;27;20509;-70
2022/08/21 05:31:38;;;;;;;12.68;6.25;;;;;;;;;;5112114;27;20077;-71
2022/08/21 05:34:05;;;;;;;8.27;5.18;;;;;;;;;;5116285;27;20032;-70
2022/08/21 05:36:31;;;;;;;10.77;5.78;;;;;;;;;;5093639;28;20036;-70
2022/08/21 05:38:58;;;;;;;12.93;7.57;;;;;;;;;;5109936;28;20051;-70
2022/08/21 05:41:24;;;;;;;11.15;6.30;;;;;;;;;;5093740;28;20611;-70
2022/08/21 05:43:50;;;;;;;12.48;7.45;;;;;;;;;;5111588;28;20059;-70
2022/08/21 05:46:17;;;;;;;14.90;6.55;;;;;;;;;;5102830;27;20139;-70
2022/08/21 05:48:43;;;;;;;12.52;7.40;;;;;;;;;;5094794;28;20493;-70
2022/08/21 05:51:12;;;;;;;9.43;6.40;;;;;;;;;;5091214;28;20375;-70
2022/08/21 05:53:39;;;;;;;12.88;5.95;;;;;;;;;;5089058;28;20028;-70
2022/08/21 05:56:06;;;;;;;11.95;5.97;;;;;;;;;;5091051;28;20505;-70
2022/08/21 05:58:33;;;;;;;16.13;7.28;;;;;;;;;;5090807;28;20047;-70
2022/08/21 06:01:00;;;;;;;8.68;6.43;;;;;;;;;;5090918;28;20178;-70
2022/08/21 06:03:27;;;;;;;9.75;6.25;;;;;;;;;;5088368;28;20089;-70
2022/08/21 06:05:54;;;;;;;11.45;6.18;;;;;;;;;;5090571;28;20039;-70
2022/08/21 06:08:21;;;;;;;13.52;6.45;;;;;;;;;;5089543;28;20032;-70
2022/08/21 06:10:48;;;;;;;11.60;6.65;;;;;;;;;;5089973;28;20478;-71
2022/08/21 06:13:15;;;;;;;10.60;5.60;;;;;;;;;;5091225;28;20032;-71
2022/08/21 06:15:41;;;;;;;11.55;7.15;;;;;;;;;;5090635;28;20508;-71
2022/08/21 06:18:08;;;;;;;19.67;6.72;;;;;;;;;;5090650;28;20044;-71
2022/08/21 06:20:34;;;;;;;11.88;6.45;;;;;;;;;;5090237;28;20036;-71
2022/08/21 06:23:01;;;;;;;14.48;6.35;;;;;;;;;;5090244;28;20040;-71
2022/08/21 06:25:27;;;;;;;12.48;6.57;;;;;;;;;;5081400;28;20036;-70
2022/08/21 06:27:53;;;;;;;12.60;6.72;;;;;;;;;;5069180;28;20041;-70
2022/08/21 06:30:20;;;;;;;17.95;6.90;;;;;;;;;;5081818;28;20402;-70
2022/08/21 06:32:46;;;;;;;10.70;5.65;;;;;;;;;;5089930;28;20058;-70
2022/08/21 06:35:12;;;;;;;17.05;7.78;;;;;;;;;;5079938;28;20083;-70
2022/08/21 06:37:38;;;;;;;13.55;7.03;;;;;;;;;;5079411;28;20448;-71
2022/08/21 06:40:06;;;;;;;7.13;5.20;;;;;;;;;;5079935;28;20047;-71
2022/08/21 06:42:32;;;;;;;11.77;6.53;;;;;;;;;;5088408;28;20047;-71
2022/08/21 06:44:58;;;;;;;12.60;6.38;;;;;;;;;;5090047;28;20086;-71
2022/08/21 06:47:25;;;;;;;12.60;6.43;;;;;;;;;;5107793;28;20132;-69
2022/08/21 06:49:51;;;;;;;10.85;6.15;;;;;;;;;;5110319;27;20082;-70
2022/08/21 06:52:17;;;;;;;12.43;6.45;;;;;;;;;;5106932;28;20398;-71
2022/08/21 06:54:43;;;;;;;16.20;5.97;;;;;;;;;;5109859;27;20566;-71
2022/08/21 06:57:09;;;;;;;10.20;5.38;;;;;;;;;;5109744;27;20054;-71
2022/08/21 06:59:36;;;;;;;9.05;5.50;;;;;;;;;;5109023;28;20047;-70
2022/08/21 07:02:02;;;;;;;11.68;6.45;;;;;;;;;;5091637;28;20040;-71
2022/08/21 07:04:28;;;;;;;15.95;5.85;;;;;;;;;;5111235;27;20036;-71
2022/08/21 07:06:54;;;;;;;14.43;6.20;;;;;;;;;;5092359;28;20407;-71
2022/08/21 07:09:20;;;;;;;12.68;5.43;;;;;;;;;;5092690;28;20036;-71
2022/08/21 07:11:50;;;;;;;12.52;5.55;;;;;;;;;;5099351;28;20035;-71
2022/08/21 07:14:16;;;;;;;9.32;5.38;;;;;;;;;;5101359;28;20042;-71
2022/08/21 07:16:42;;;;;;;13.30;5.30;;;;;;;;;;5109618;28;20036;-71
2022/08/21 07:19:08;;;;;;;15.20;5.60;;;;;;;;;;5107518;28;20161;-71
2022/08/21 07:21:35;;;;;;;11.25;5.53;;;;;;;;;;5101887;28;20499;-71
2022/08/21 07:24:01;;;;;;;13.07;7.45;;;;;;;;;;5095405;28;20044;-71
2022/08/21 07:26:27;;;;;;;14.95;7.03;;;;;;;;;;5092652;28;20119;-71
2022/08/21 07:28:53;;;;;;;16.83;6.28;;;;;;;;;;5094641;28;20097;-71
2022/08/21 07:31:21;;;;;;;11.02;6.07;;;;;;;;;;5100541;28;20035;-71
2022/08/21 07:33:47;;;;;;;11.18;5.72;;;;;;;;;;5109681;28;20032;-71
2022/08/21 07:36:14;;;;;;;15.10;7.05;;;;;;;;;;5107433;28;20101;-71
2022/08/21 07:38:40;;;;;;;14.20;5.35;;;;;;;;;;5096801;28;20064;-70
2022/08/21 07:41:10;;;;;;;11.70;6.35;;;;;;;;;;5097951;28;20265;-72
2022/08/21 07:43:37;;;;;;;8.77;5.90;;;;;;;;;;5092633;28;20275;-72
2022/08/21 07:46:03;;;;;;;8.98;5.43;;;;;;;;;;5097156;28;20057;-72
2022/08/21 07:48:29;;;;;;;15.88;5.47;;;;;;;;;;5094691;28;20105;-71
2022/08/21 07:50:56;;;;;;;11.50;6.28;;;;;;;;;;5090922;28;20058;-70
2022/08/21 07:53:22;;;;;;;14.10;5.38;;;;;;;;;;5108996;28;20040;-72
2022/08/21 07:55:48;;;;;;;11.70;4.82;;;;;;;;;;5108707;28;20127;-71
2022/08/21 07:58:14;;;;;;;11.93;6.50;;;;;;;;;;5109862;28;20075;-71
2022/08/21 08:00:41;;;;;;;13.98;5.97;;;;;;;;;;5104812;28;20081;-72
2022/08/21 08:03:07;;;;;;;21.00;6.20;;;;;;;;;;5104126;28;20030;-72
2022/08/21 08:05:35;;;;;;;19.17;6.00;;;;;;;;;;5101026;28;20454;-71
2022/08/21 08:08:01;;;;;;;10.68;5.35;;;;;;;;;;5107027;28;20057;-71
2022/08/21 08:10:27;;;;;;;10.25;6.28;;;;;;;;;;5108817;28;20035;-71
2022/08/21 08:12:54;;;;;;;13.30;6.68;;;;;;;;;;5091078;28;20036;-72
2022/08/21 08:15:22;;;;;;;11.93;5.45;;;;;;;;;;5105938;28;20130;-71
2022/08/21 08:17:48;;;;;;;13.00;6.30;;;;;;;;;;5109000;28;20089;-71
2022/08/21 08:20:16;;;;;;;15.68;5.60;;;;;;;;;;5096531;28;20039;-72
2022/08/21 08:22:43;;;;;;;15.80;5.75;;;;;;;;;;5091489;28;20378;-71
2022/08/21 08:25:10;;;;;;;8.45;5.68;;;;;;;;;;5110787;28;20434;-71
2022/08/21 08:27:37;;;;;;;10.90;5.65;;;;;;;;;;5108768;28;20126;-71
2022/08/21 08:30:04;;;;;;;8.65;5.30;;;;;;;;;;5109685;27;20142;-71
2022/08/21 08:32:30;;;;;;;13.95;6.10;;;;;;;;;;5112750;27;20046;-71
2022/08/21 08:34:56;;;;;;;14.95;5.50;;;;;;;;;;5110877;27;20118;-71
2022/08/21 08:37:23;;;;;;;14.75;7.13;;;;;;;;;;5110898;28;20501;-72
2022/08/21 08:39:49;;;;;;;11.68;4.78;;;;;;;;;;5112098;27;20546;-71
2022/08/21 08:42:25;;;;;;;10.57;5.55;;;;;;;;;;5113211;27;20143;-71
2022/08/21 08:44:56;;;;;;;9.65;4.88;;;;;;;;;;5112501;27;20051;-71
2022/08/21 08:47:22;;;;;;;14.30;5.55;;;;;;;;;;5110250;27;20508;-72
2022/08/21 08:50:12;;;;;;;14.07;4.10;;;;;;;;;;5112451;27;20054;-71
2022/08/21 08:52:54;;;;;;;7.90;3.50;;;;;;;;;;5098437;27;20398;-70
2022/08/21 08:55:24;;;;;;;7.40;3.88;;;;;;;;;;5083663;28;20482;-72
2022/08/21 08:57:52;;;;;;;11.30;4.63;;;;;;;;;;5098745;28;20381;-71
2022/08/21 09:00:20;;;;;;;12.77;3.78;;;;;;;;;;5110986;28;20044;-71
2022/08/21 09:02:47;;;;;;;9.90;3.90;;;;;;;;;;5102329;28;20157;-70
2022/08/21 09:05:21;;;;;;;14.50;4.90;;;;;;;;;;5101702;28;20039;-71
2022/08/21 09:07:52;;;;;;;10.27;4.03;;;;;;;;;;5107665;27;20044;-71
2022/08/21 09:10:18;;;;;;;15.02;4.50;;;;;;;;;;5106990;27;20075;-71
2022/08/21 09:13:11;;;;;;;9.65;4.28;;;;;;;;;;5102010;27;20045;-70
2022/08/21 09:15:44;;;;;;;13.55;4.00;;;;;;;;;;5055098;28;20043;-71
2022/08/21 09:18:10;;;;;;;;;;;;;;;;;;5083544;28;20042;-71
2022/08/21 09:20:56;;;;;;;7.63;3.50;;;;;;;;;;5090695;28;19919;-71
2022/08/21 09:23:25;;;;;;;6.60;3.88;;;;;;;;;;5111211;27;20488;-71
2022/08/21 09:26:07;;;;;;;8.30;3.90;;;;;;;;;;5094977;28;20044;-70
2022/08/21 09:28:34;;;;;;;13.32;3.85;;;;;;;;;;5093746;27;25074;-71
2022/08/21 09:31:02;;;;;;;8.13;3.30;;;;;;;;;;5097621;28;20090;-71
2022/08/21 09:33:28;;;;;;;12.55;3.63;;;;;;;;;;5102567;27;20042;-70
2022/08/21 09:35:59;;;;;;;7.78;3.17;;;;;;;;;;5100230;27;20610;-70
2022/08/21 09:38:26;;;;;;;10.35;3.83;;;;;;;;;;5093190;28;20052;-71
2022/08/21 09:40:58;;;;;;;12.10;3.67;;;;;;;;;;5109580;28;20556;-70
2022/08/21 09:43:25;;;;;;;9.25;4.07;;;;;;;;;;5111083;27;20047;-71
2022/08/21 09:46:12;;;;;;;8.32;3.85;;;;;;;;;;5111217;28;20051;-71
2022/08/21 09:48:39;;;;;;;10.85;4.45;;;;;;;;;;5110128;27;20489;-71
2022/08/21 09:51:07;;;;;;;5.43;3.42;;;;;;;;;;5112399;27;20031;-71
2022/08/21 09:53:34;;;;;;;7.78;2.95;;;;;;;;;;5103750;27;20397;-71
2022/08/21 09:58:49;;;;;;;11.88;3.60;;;;;;;;;;5109923;27;20130;-71
2022/08/21 10:01:17;;;;;;;6.15;2.97;;;;;;;;;;5092703;28;20488;-71
2022/08/21 10:03:43;;;;;;;8.38;3.55;;;;;;;;;;5103727;28;20043;-71
2022/08/21 10:06:10;;;;;;;6.90;2.88;;;;;;;;;;5099652;27;20050;-70
2022/08/21 10:08:41;;;;;;;10.68;4.00;;;;;;;;;;5105411;27;20039;-72
2022/08/21 10:11:09;;;;;;;6.90;3.33;;;;;;;;;;5101453;28;20032;-70
2022/08/21 10:13:41;;;;;;;6.25;3.60;;;;;;;;;;5078675;28;20039;-70
2022/08/21 10:16:13;;;;;;;5.32;3.15;;;;;;;;;;5108954;27;20051;-70
2022/08/21 10:18:57;;;;;;;7.93;3.25;;;;;;;;;;5099580;27;20043;-70
2022/08/21 10:21:45;;;;;;;10.15;2.83;;;;;;;;;;5098380;28;20065;-70
2022/08/21 10:24:18;;;;;;;9.30;2.78;;;;;;;;;;5107929;27;20044;-70
2022/08/21 10:26:56;;;;;;;7.88;2.75;;;;;;;;;;5089544;28;20039;-71
2022/08/21 10:29:24;;;;;;;6.22;2.55;;;;;;;;;;5099756;28;20067;-72
2022/08/21 10:31:50;;;;;;;7.30;2.47;;;;;;;;;;5109409;27;20454;-70
2022/08/21 10:34:23;;;;;;;8.20;3.03;;;;;;;;;;5112505;27;20043;-70
2022/08/21 10:37:07;;;;;;;7.53;3.58;;;;;;;;;;5102374;28;20036;-71
2022/08/21 10:39:35;;;;;;;6.60;3.13;;;;;;;;;;5107508;28;20035;-71
2022/08/21 10:42:30;;;;;;;10.05;2.40;;;;;;;;;;5107418;27;20075;-70
2022/08/21 10:44:56;;;;;;;6.03;2.55;;;;;;;;;;5035030;28;20435;-71
2022/08/21 10:47:33;;;;;;;8.60;2.22;;;;;;;;;;5100939;28;20108;-70
2022/08/21 10:50:04;;;;;;;4.18;1.75;;;;;;;;;;5106672;27;20028;-70
2022/08/21 10:52:51;;;;;;;4.57;1.85;;;;;;;;;;5087177;28;20096;-70
2022/08/21 10:55:18;;;;;;;5.05;2.03;;;;;;;;;;5105852;28;20036;-70
2022/08/21 10:57:50;;;;;;;3.83;1.60;;;;;;;;;;5109323;28;20046;-70
2022/08/21 11:00:19;;;;;;;5.45;2.25;;;;;;;;;;5106655;28;20032;-71
2022/08/21 11:02:48;;;;;;;8.60;2.20;;;;;;;;;;5107630;28;20128;-71
2022/08/21 11:05:17;;;;;;;3.05;1.73;;;;;;;;;;5099628;27;20113;-71
2022/08/21 11:07:49;;;;;;;4.82;2.70;;;;;;;;;;5091369;27;20035;-70
2022/08/21 11:10:21;;;;;;;5.05;1.98;;;;;;;;;;5097206;27;20059;-71
2022/08/21 11:12:48;;;;;;;;;;;;;;;;;;5102040;27;20039;-70
2022/08/21 11:15:34;;;;;;;5.85;2.38;;;;;;;;;;5102828;27;19915;-70
2022/08/21 11:18:18;;;;;;;3.17;2.10;;;;;;;;;;5104554;27;20044;-71
2022/08/21 11:21:05;;;;;;;5.20;2.75;;;;;;;;;;5100311;28;20540;-70
2022/08/21 11:23:39;;;;;;;5.50;1.98;;;;;;;;;;5079642;28;20051;-70
2022/08/21 11:26:11;;;;;;;9.85;1.95;;;;;;;;;;5083420;28;20033;-71
2022/08/21 11:28:41;;;;;;;7.03;2.50;;;;;;;;;;5104268;28;20047;-70
2022/08/21 11:31:12;;;;;;;8.25;3.15;;;;;;;;;;5110117;28;20046;-70
2022/08/21 11:33:50;;;;;;;5.82;2.33;;;;;;;;;;5111329;28;20044;-70
2022/08/21 11:36:25;;;;;;;5.57;2.67;;;;;;;;;;5102148;28;20039;-65
2022/08/21 11:39:03;;;;;;;7.40;2.25;;;;;;;;;;5103569;28;20138;-66
2022/08/21 11:41:31;;;;;;;7.18;2.17;;;;;;;;;;5096357;28;20130;-66
2022/08/21 11:44:16;;;;;;;4.60;2.28;;;;;;;;;;5099474;28;20059;-68
2022/08/21 11:47:00;;;;;;;7.35;2.45;;;;;;;;;;5102467;28;20158;-66
2022/08/21 11:49:40;;;;;;;5.38;2.42;;;;;;;;;;5103605;28;20072;-62
2022/08/21 11:52:09;;;;;;;5.30;2.47;;;;;;;;;;5104825;28;20416;-62
2022/08/21 11:54:48;;;;;;;9.38;2.33;;;;;;;;;;5097143;28;20031;-62
2022/08/21 11:57:25;;;;;;;6.32;2.53;;;;;;;;;;5106258;28;20032;-62
2022/08/21 12:00:08;;;;;;;9.60;2.83;;;;;;;;;;5101041;28;20040;-65
2022/08/21 12:02:36;;;;;;;8.25;2.25;;;;;;;;;;5106694;28;20461;-65
2022/08/21 12:05:10;;;;;;;8.80;2.60;;;;;;;;;;5102044;28;20489;-68
2022/08/21 12:07:38;;;;;;;10.65;3.90;;;;;;;;;;5110517;27;20028;-66
2022/08/21 12:10:25;;;;;;;3.30;2.30;;;;;;;;;;5090724;28;20086;-66
2022/08/21 12:12:51;;;;;;;7.13;2.60;;;;;;;;;;5110444;28;20035;-67
2022/08/21 12:15:17;;;;;;;4.53;2.13;;;;;;;;;;5114026;28;20036;-66
2022/08/21 12:17:55;;;;;;;6.05;2.70;;;;;;;;;;5113759;27;20072;-65
2022/08/21 12:20:21;;;;;;;5.80;2.35;;;;;;;;;;5108901;28;20048;-65
2022/08/21 12:22:53;;;;;;;3.58;1.92;;;;;;;;;;5112457;27;20086;-66
2022/08/21 12:25:20;;;;;;;6.95;2.47;;;;;;;;;;5094308;28;20043;-64
2022/08/21 12:27:53;;;;;;;6.78;2.20;;;;;;;;;;5107398;28;20036;-66
2022/08/21 12:30:33;;;;;;;5.18;2.15;;;;;;;;;;5109736;27;20043;-64
2022/08/21 12:33:04;;;;;;;8.00;2.42;;;;;;;;;;5105254;27;20532;-66
2022/08/21 12:35:37;;;;;;;4.63;1.85;;;;;;;;;;5109471;27;20142;-66
2022/08/21 12:38:04;;;;;;;5.93;1.85;;;;;;;;;;5103344;27;20035;-66
2022/08/21 12:40:39;;;;;;;4.22;1.83;;;;;;;;;;5095579;28;20040;-66
2022/08/21 12:43:06;;;;;;;7.13;2.00;;;;;;;;;;5093982;28;20045;-78
2022/08/21 12:45:34;;;;;;;4.60;2.10;;;;;;;;;;5093903;28;20035;-77
2022/08/21 12:48:00;;;;;;;6.85;2.40;;;;;;;;;;5093198;28;20500;-78
2022/08/21 12:50:37;;;;;;;11.20;2.15;;;;;;;;;;5060920;28;20055;-77
2022/08/21 12:53:22;;;;;;;9.93;2.28;;;;;;;;;;5105172;27;20039;-78
2022/08/21 12:55:48;;;;;;;7.40;2.63;;;;;;;;;;5110937;27;20482;-78
2022/08/21 12:58:22;;;;;;;3.97;2.10;;;;;;;;;;5060458;28;20043;-79
2022/08/21 13:00:53;;;;;;;3.88;1.80;;;;;;;;;;5103492;27;20071;-79
2022/08/21 13:03:19;;;;;;;4.90;2.20;;;;;;;;;;5094596;28;20066;-78
2022/08/21 13:05:46;;;;;;;5.45;2.78;;;;;;;;;;5113061;27;20046;-78
2022/08/21 13:08:13;;;;;;;6.72;2.50;;;;;;;;;;5093680;28;20119;-78
2022/08/21 13:10:40;;;;;;;4.95;2.20;;;;;;;;;;5103178;28;20040;-78
2022/08/21 13:13:08;;;;;;;5.40;2.03;;;;;;;;;;5094944;28;20547;-77
2022/08/21 13:15:36;;;;;;;5.13;2.03;;;;;;;;;;5096458;27;20039;-78
2022/08/21 13:18:05;;;;;;;5.78;2.35;;;;;;;;;;5116702;27;20042;-78
2022/08/21 13:20:42;;;;;;;12.65;2.30;;;;;;;;;;5106265;27;20063;-78
2022/08/21 13:23:19;;;;;;;7.07;2.05;;;;;;;;;;5101489;27;20915;-78
2022/08/21 13:25:45;;;;;;;8.82;2.22;;;;;;;;;;5100767;28;20074;-77
2022/08/21 13:28:14;;;;;;;4.90;2.42;;;;;;;;;;5094661;28;20378;-77
2022/08/21 13:30:49;;;;;;;7.25;2.42;;;;;;;;;;5096544;27;20069;-77
2022/08/21 13:33:16;;;;;;;5.35;1.95;;;;;;;;;;5112034;27;20460;-77
2022/08/21 13:35:50;;;;;;;9.10;2.90;;;;;;;;;;5100234;27;20044;-78
2022/08/21 13:38:18;;;;;;;6.65;2.80;;;;;;;;;;5103083;27;20112;-78
2022/08/21 13:40:49;;;;;;;9.63;3.15;;;;;;;;;;5081208;28;20039;-75
2022/08/21 13:43:18;;;;;;;4.63;2.53;;;;;;;;;;5078775;28;20043;-76
2022/08/21 13:45:45;;;;;;;4.82;2.20;;;;;;;;;;5093577;28;20056;-76
2022/08/21 13:48:12;;;;;;;4.03;2.60;;;;;;;;;;5104049;27;20143;-76
2022/08/21 13:50:38;;;;;;;9.15;3.08;;;;;;;;;;5102406;27;20058;-76
2022/08/21 13:53:05;;;;;;;9.90;2.30;;;;;;;;;;5107158;27;20039;-76
2022/08/21 13:55:37;;;;;;;9.43;2.78;;;;;;;;;;5085864;28;20401;-76
2022/08/21 13:58:04;;;;;;;3.07;1.70;;;;;;;;;;5103204;28;20100;-77
2022/08/21 14:00:34;;;;;;;4.90;1.88;;;;;;;;;;5097990;27;20032;-77
2022/08/21 14:03:06;;;;;;;6.32;2.20;;;;;;;;;;5085777;28;20213;-77
2022/08/21 14:05:35;;;;;;;4.30;1.93;;;;;;;;;;5096114;28;20167;-77
2022/08/21 14:08:16;;;;;;;7.75;2.10;;;;;;;;;;5096745;28;20540;-76
2022/08/21 14:10:48;;;;;;;7.57;2.88;;;;;;;;;;5071961;28;20550;-77
2022/08/21 14:13:40;;;;;;;8.68;3.10;;;;;;;;;;5095404;27;20453;-77
2022/08/21 14:16:15;;;;;;;5.20;2.42;;;;;;;;;;5086694;27;20048;-76
2022/08/21 14:18:49;;;;;;;5.28;2.15;;;;;;;;;;5092731;28;20120;-77
2022/08/21 14:21:25;;;;;;;9.45;2.78;;;;;;;;;;5089962;27;20283;-77
2022/08/21 14:24:03;;;;;;;8.73;2.63;;;;;;;;;;5069656;28;20118;-77
2022/08/21 14:26:29;;;;;;;4.90;2.40;;;;;;;;;;5103706;27;20043;-77
2022/08/21 14:28:59;;;;;;;3.72;1.75;;;;;;;;;;5101841;28;20130;-77
2022/08/21 14:31:29;;;;;;;6.75;2.38;;;;;;;;;;5097566;27;20086;-77
2022/08/21 14:33:55;;;;;;;4.95;2.20;;;;;;;;;;5096612;27;20127;-77
2022/08/21 14:36:21;;;;;;;6.20;2.13;;;;;;;;;;5096714;27;20630;-77
2022/08/21 14:38:48;;;;;;;6.13;2.20;;;;;;;;;;5078944;28;20038;-78
2022/08/21 14:41:15;;;;;;;5.70;2.38;;;;;;;;;;5077452;28;20408;-77
2022/08/21 14:43:42;;;;;;;6.95;2.30;;;;;;;;;;5098990;27;20085;-77
2022/08/21 14:46:08;;;;;;;3.58;1.80;;;;;;;;;;5101129;27;20055;-77
2022/08/21 14:48:34;;;;;;;6.57;2.45;;;;;;;;;;5080752;28;20503;-77
2022/08/21 14:51:00;;;;;;;9.70;2.38;;;;;;;;;;5073071;28;20048;-76